Time;durP1;ratioP1;P1;durP2;ratioP2;P2;SDS_P1;SDS_P2;PMS_P1;PMS_P2;Temp;Humidity;BMP_temperature;BMP_pressure;BME280_temperature;BME280_humidity;BME280_pressure;Samples;Min_cycle;Max_cycle;Signal;HPM_P1;HPM_P2
2022/08/15 00:00:20;;;;;;;1999.90;999.90;;;18.70;99.90;;;;;;5046492;28;20122;-74
2022/08/15 00:02:47;;;;;;;1999.90;999.90;;;18.70;99.90;;;;;;5051661;28;20032;-74
2022/08/15 00:05:18;;;;;;;1999.90;999.90;;;18.70;99.90;;;;;;5052297;28;20048;-75
2022/08/15 00:07:43;;;;;;;1999.90;999.90;;;18.70;99.90;;;;;;5054484;28;20473;-74
2022/08/15 00:10:10;;;;;;;1999.90;999.90;;;18.60;99.90;;;;;;5033164;28;20047;-74
2022/08/15 00:12:38;;;;;;;1999.90;999.90;;;18.60;99.90;;;;;;5049458;28;20054;-74
2022/08/15 00:15:13;;;;;;;1999.90;999.90;;;18.60;99.90;;;;;;5042473;28;20048;-73
2022/08/15 00:17:41;;;;;;;1999.90;999.90;;;18.60;99.90;;;;;;5083721;28;20377;-74
2022/08/15 00:20:09;;;;;;;1999.90;999.90;;;18.60;99.90;;;;;;5048681;28;20048;-74
2022/08/15 00:22:42;;;;;;;1999.90;999.90;;;18.60;99.90;;;;;;5068704;28;20037;-74
2022/08/15 00:25:09;;;;;;;;;;;18.60;99.90;;;;;;5046513;28;20033;-74
2022/08/15 00:27:35;;;;;;;1999.90;999.90;;;18.50;99.90;;;;;;5065054;28;19949;-74
2022/08/15 00:30:03;;;;;;;1999.90;999.90;;;18.50;99.90;;;;;;5043974;28;20121;-74
2022/08/15 00:32:31;;;;;;;1999.90;999.90;;;18.50;99.90;;;;;;5065947;28;20464;-74
2022/08/15 00:34:57;;;;;;;1999.90;999.90;;;18.50;99.90;;;;;;5063408;28;20044;-74
2022/08/15 00:37:22;;;;;;;1999.90;999.90;;;18.50;99.90;;;;;;5037067;28;20405;-74
2022/08/15 00:39:48;;;;;;;1999.90;999.90;;;18.40;99.90;;;;;;5063066;28;20071;-74
2022/08/15 00:42:19;;;;;;;1999.90;999.90;;;18.40;99.90;;;;;;5073122;28;20057;-74
2022/08/15 00:44:46;;;;;;;1999.90;999.90;;;18.30;99.90;;;;;;5048839;28;20389;-74
2022/08/15 00:47:20;;;;;;;1999.90;999.90;;;18.30;99.90;;;;;;5086694;28;20051;-73
2022/08/15 00:49:47;;;;;;;1999.90;999.90;;;18.30;99.90;;;;;;5096982;28;20045;-74
2022/08/15 00:52:27;;;;;;;1999.90;999.90;;;18.30;99.90;;;;;;5059315;28;20043;-74
2022/08/15 00:54:59;;;;;;;1999.90;999.90;;;18.30;99.90;;;;;;5045975;28;20037;-74
2022/08/15 00:57:31;;;;;;;1999.90;999.90;;;18.30;99.90;;;;;;5041155;28;20036;-74
2022/08/15 01:00:05;;;;;;;1999.90;999.90;;;18.30;99.90;;;;;;5054437;28;20049;-74
2022/08/15 01:02:33;;;;;;;1999.90;999.90;;;18.30;99.90;;;;;;5057291;28;20044;-74
2022/08/15 01:04:59;;;;;;;1999.90;999.90;;;18.30;99.90;;;;;;5040710;28;20040;-74
2022/08/15 01:07:26;;;;;;;1999.90;999.90;;;18.30;99.90;;;;;;5040245;28;20051;-74
2022/08/15 01:09:53;;;;;;;1999.90;999.90;;;18.20;99.90;;;;;;5071744;28;20051;-73
2022/08/15 01:12:24;;;;;;;1999.90;999.90;;;18.20;99.90;;;;;;5064599;28;20055;-73
2022/08/15 01:14:55;;;;;;;1999.90;999.90;;;18.20;99.90;;;;;;5072479;28;20135;-74
2022/08/15 01:17:22;;;;;;;1999.90;999.90;;;18.20;99.90;;;;;;5046752;28;20119;-73
2022/08/15 01:20:23;;;;;;;1999.90;999.90;;;18.20;99.90;;;;;;5067199;28;20056;-74
2022/08/15 01:23:11;;;;;;;1999.90;999.90;;;18.20;99.90;;;;;;5035745;28;20049;-74
2022/08/15 01:26:05;;;;;;;1999.90;999.90;;;18.20;99.90;;;;;;5066397;28;20389;-74
2022/08/15 01:28:38;;;;;;;1999.90;999.90;;;18.20;99.90;;;;;;5063043;28;20071;-74
2022/08/15 01:31:06;;;;;;;;;;;18.20;99.90;;;;;;5050054;28;20070;-73
2022/08/15 01:33:37;;;;;;;1999.90;999.90;;;18.20;99.90;;;;;;5065486;28;19917;-74
2022/08/15 01:36:03;;;;;;;1999.90;999.90;;;18.20;99.90;;;;;;5059119;28;20044;-74
2022/08/15 01:38:36;;;;;;;1999.90;999.90;;;18.20;99.90;;;;;;5052596;28;20060;-74
2022/08/15 01:41:19;;;;;;;1999.90;999.90;;;18.20;99.90;;;;;;5050146;28;20049;-74
2022/08/15 01:44:24;;;;;;;1999.90;999.90;;;18.20;99.90;;;;;;5054724;28;20047;-75
2022/08/15 01:47:06;;;;;;;1999.90;999.90;;;18.20;99.90;;;;;;5063645;28;20075;-74
2022/08/15 01:49:43;;;;;;;1999.90;999.90;;;18.10;99.90;;;;;;5042321;28;20579;-73
2022/08/15 01:52:08;;;;;;;1999.90;999.90;;;18.10;99.90;;;;;;5047071;28;20127;-74
2022/08/15 01:54:40;;;;;;;1999.90;999.90;;;18.10;99.90;;;;;;5046349;28;20127;-74
2022/08/15 01:57:08;;;;;;;1999.90;999.90;;;18.10;99.90;;;;;;5065218;28;20123;-74
2022/08/15 01:59:34;;;;;;;1999.90;999.90;;;18.10;99.90;;;;;;5064371;28;20671;-74
2022/08/15 02:02:05;;;;;;;1999.90;999.90;;;18.10;99.90;;;;;;5064163;28;20405;-74
2022/08/15 02:04:38;;;;;;;1999.90;999.90;;;18.10;99.90;;;;;;5053260;28;20485;-74
2022/08/15 02:07:08;;;;;;;1999.90;999.90;;;18.10;99.90;;;;;;5051357;28;20063;-74
2022/08/15 02:09:35;;;;;;;1999.90;999.90;;;18.10;99.90;;;;;;5042744;28;20071;-73
2022/08/15 02:12:03;;;;;;;1999.90;999.90;;;18.10;99.90;;;;;;5081532;28;20476;-73
2022/08/15 02:14:31;;;;;;;1999.90;999.90;;;18.20;99.90;;;;;;5059435;28;20037;-73
2022/08/15 02:16:56;;;;;;;1999.90;999.90;;;18.20;99.90;;;;;;5061325;28;20052;-74
2022/08/15 02:19:22;;;;;;;1999.90;999.90;;;18.10;99.90;;;;;;5045077;28;20086;-73
2022/08/15 02:21:48;;;;;;;1999.90;999.90;;;18.20;99.90;;;;;;5054598;28;20056;-73
2022/08/15 02:24:19;;;;;;;1999.90;999.90;;;18.10;99.90;;;;;;5056488;28;20071;-73
2022/08/15 02:26:46;;;;;;;1999.90;999.90;;;18.10;99.90;;;;;;5069234;28;20040;-73
2022/08/15 02:29:13;;;;;;;1999.90;999.90;;;18.10;99.90;;;;;;5055411;28;20571;-73
2022/08/15 02:31:39;;;;;;;1999.90;999.90;;;18.10;99.90;;;;;;5069236;28;20123;-73
2022/08/15 02:34:05;;;;;;;1999.90;999.90;;;18.10;99.90;;;;;;5037809;28;20091;-73
2022/08/15 02:36:33;;;;;;;1999.90;999.90;;;18.10;99.90;;;;;;5051806;28;20045;-73
2022/08/15 02:39:03;;;;;;;1999.90;999.90;;;18.00;99.90;;;;;;5041519;28;20102;-73
2022/08/15 02:41:32;;;;;;;1999.90;999.90;;;18.00;99.90;;;;;;5050893;28;20056;-73
2022/08/15 02:43:59;;;;;;;1999.90;999.90;;;18.00;99.90;;;;;;5056994;28;20146;-73
2022/08/15 02:46:26;;;;;;;1999.90;999.90;;;18.00;99.90;;;;;;5076394;28;20488;-73
2022/08/15 02:48:52;;;;;;;1999.90;999.90;;;18.00;99.90;;;;;;5069139;28;20078;-73
2022/08/15 02:51:19;;;;;;;1999.90;999.90;;;18.00;99.90;;;;;;5060855;28;20527;-73
2022/08/15 02:53:48;;;;;;;1999.90;999.90;;;18.00;99.90;;;;;;5057546;28;20607;-73
2022/08/15 02:56:17;;;;;;;1999.90;999.90;;;18.10;99.90;;;;;;5066346;28;20044;-73
2022/08/15 02:58:42;;;;;;;1999.90;999.90;;;18.10;99.90;;;;;;5070143;28;20040;-73
2022/08/15 03:01:09;;;;;;;1999.90;999.90;;;18.20;99.90;;;;;;5067299;28;20051;-72
2022/08/15 03:03:38;;;;;;;1999.90;999.90;;;18.20;99.90;;;;;;5061625;28;20037;-73
2022/08/15 03:06:08;;;;;;;1999.90;999.90;;;18.20;99.90;;;;;;5048151;28;20070;-72
2022/08/15 03:08:35;;;;;;;1999.90;999.90;;;18.20;99.90;;;;;;5068316;28;20044;-73
2022/08/15 03:11:03;;;;;;;1999.90;999.90;;;18.20;99.90;;;;;;5060243;28;20058;-73
2022/08/15 03:13:31;;;;;;;1999.90;999.90;;;18.20;99.90;;;;;;5050386;28;20040;-73
2022/08/15 03:15:58;;;;;;;1999.90;999.90;;;18.30;99.90;;;;;;5067589;28;20048;-73
2022/08/15 03:18:26;;;;;;;1999.90;999.90;;;18.20;99.90;;;;;;5050180;28;20132;-74
2022/08/15 03:20:52;;;;;;;1999.90;999.90;;;18.20;99.90;;;;;;5070115;28;20051;-73
2022/08/15 03:23:20;;;;;;;1999.90;999.90;;;18.30;99.90;;;;;;5053126;28;20047;-73
2022/08/15 03:25:50;;;;;;;1999.90;999.90;;;18.30;99.90;;;;;;5041187;28;20063;-72
2022/08/15 03:28:17;;;;;;;1999.90;999.90;;;18.30;99.90;;;;;;5068552;28;20274;-72
2022/08/15 03:30:43;;;;;;;1999.90;999.90;;;18.30;99.90;;;;;;5051757;28;20044;-73
2022/08/15 03:33:08;;;;;;;1999.90;999.90;;;18.30;99.90;;;;;;5042023;28;20075;-73
2022/08/15 03:35:44;;;;;;;1999.90;999.90;;;18.30;99.90;;;;;;5061657;28;20129;-72
2022/08/15 03:38:10;;;;;;;1999.90;999.90;;;18.30;99.90;;;;;;5037472;28;20044;-72
2022/08/15 03:40:37;;;;;;;1999.90;999.90;;;18.30;99.90;;;;;;5050819;28;20457;-73
2022/08/15 03:43:21;;;;;;;1999.90;999.90;;;18.20;99.90;;;;;;5066180;28;20046;-73
2022/08/15 03:45:52;;;;;;;1999.90;999.90;;;18.20;99.90;;;;;;5046291;28;20126;-73
2022/08/15 03:48:19;;;;;;;1999.90;999.90;;;18.20;99.90;;;;;;5049660;28;20045;-72
2022/08/15 03:50:46;;;;;;;1999.90;999.90;;;18.10;99.90;;;;;;5064978;28;20127;-72
2022/08/15 03:53:12;;;;;;;1999.90;999.90;;;18.10;99.90;;;;;;5043611;28;20073;-73
2022/08/15 03:55:40;;;;;;;1999.90;999.90;;;18.10;99.90;;;;;;5048865;28;20041;-73
2022/08/15 03:58:07;;;;;;;1999.90;999.90;;;18.00;99.90;;;;;;5073251;28;20064;-72
2022/08/15 04:00:46;;;;;;;1999.90;999.90;;;18.00;99.90;;;;;;5051070;28;20043;-73
2022/08/15 04:03:20;;;;;;;1999.90;999.90;;;18.00;99.90;;;;;;5055867;28;20041;-73
2022/08/15 04:05:54;;;;;;;1999.90;999.90;;;17.90;99.90;;;;;;5071466;28;20041;-72
2022/08/15 04:08:22;;;;;;;1999.90;999.90;;;18.00;99.90;;;;;;5051621;28;20036;-73
2022/08/15 04:10:51;;;;;;;1999.90;999.90;;;17.90;99.90;;;;;;5052366;28;20075;-72
2022/08/15 04:13:23;;;;;;;1999.90;999.90;;;17.90;99.90;;;;;;5052896;28;20048;-72
2022/08/15 04:15:49;;;;;;;1999.90;999.90;;;17.80;99.90;;;;;;5050770;28;20036;-73
2022/08/15 04:18:15;;;;;;;1999.90;999.90;;;17.80;99.90;;;;;;5051042;28;20111;-73
2022/08/15 04:20:40;;;;;;;1999.90;999.90;;;17.80;99.90;;;;;;5051930;28;20075;-73
2022/08/15 04:23:07;;;;;;;1999.90;999.90;;;17.80;99.90;;;;;;5047782;28;20041;-72
2022/08/15 04:25:39;;;;;;;1999.90;999.90;;;17.80;99.90;;;;;;5054340;28;20446;-72
2022/08/15 04:28:06;;;;;;;1999.90;999.90;;;17.70;99.90;;;;;;5051233;28;20206;-73
2022/08/15 04:30:35;;;;;;;1999.90;999.90;;;17.70;99.90;;;;;;5069183;28;20044;-72
2022/08/15 04:33:14;;;;;;;1999.90;999.90;;;17.70;99.90;;;;;;5065790;28;20220;-73
2022/08/15 04:35:42;;;;;;;1999.90;999.90;;;17.70;99.90;;;;;;5037976;28;20032;-73
2022/08/15 04:38:09;;;;;;;1999.90;999.90;;;17.70;99.90;;;;;;5062796;28;20435;-73
2022/08/15 04:40:35;;;;;;;1999.90;999.90;;;17.70;99.90;;;;;;5049948;28;20045;-73
2022/08/15 04:43:02;;;;;;;1999.90;999.90;;;17.70;99.90;;;;;;5061563;28;20036;-73
2022/08/15 04:45:30;;;;;;;1999.90;999.90;;;17.70;99.90;;;;;;5070995;28;20071;-74
2022/08/15 04:47:56;;;;;;;1999.90;999.90;;;17.80;99.90;;;;;;5043510;28;20049;-73
2022/08/15 04:50:22;;;;;;;1999.90;999.90;;;17.80;99.90;;;;;;5045536;28;20456;-73
2022/08/15 04:52:55;;;;;;;1999.90;999.90;;;17.80;99.90;;;;;;5061720;28;20132;-73
2022/08/15 04:55:22;;;;;;;;;;;17.80;99.90;;;;;;5061347;28;20070;-73
2022/08/15 04:57:49;;;;;;;1999.90;999.90;;;17.80;99.90;;;;;;5051366;28;20371;-73
2022/08/15 05:00:18;;;;;;;1999.90;999.90;;;17.90;99.90;;;;;;5064702;28;20071;-73
2022/08/15 05:03:00;;;;;;;1999.90;999.90;;;17.90;99.90;;;;;;5066477;28;20040;-73
2022/08/15 05:05:27;;;;;;;1999.90;999.90;;;17.90;99.90;;;;;;5055692;28;20041;-73
2022/08/15 05:07:52;;;;;;;1999.90;999.90;;;18.00;99.90;;;;;;5039058;28;20036;-72
2022/08/15 05:10:18;;;;;;;1999.90;999.90;;;18.00;99.90;;;;;;5095518;28;20127;-73
2022/08/15 05:12:44;;;;;;;1999.90;999.90;;;18.10;99.90;;;;;;5048887;28;20102;-74
2022/08/15 05:15:11;;;;;;;1999.90;999.90;;;18.00;99.90;;;;;;5043184;28;20048;-73
2022/08/15 05:17:37;;;;;;;1999.90;999.90;;;18.10;99.90;;;;;;5080125;28;20439;-72
2022/08/15 05:20:04;;;;;;;1999.90;999.90;;;18.20;99.90;;;;;;5060154;28;20488;-73
2022/08/15 05:22:29;;;;;;;1999.90;999.90;;;18.20;99.90;;;;;;5049097;28;20040;-73
2022/08/15 05:24:57;;;;;;;1999.90;999.90;;;18.30;99.90;;;;;;5045766;28;20240;-73
2022/08/15 05:27:22;;;;;;;1999.90;999.90;;;18.30;99.90;;;;;;5065972;28;20675;-73
2022/08/15 05:29:49;;;;;;;1999.90;999.90;;;18.40;99.90;;;;;;5065564;28;20124;-72
2022/08/15 05:32:14;;;;;;;1999.90;999.90;;;18.50;99.90;;;;;;5063884;28;20122;-72
2022/08/15 05:34:40;;;;;;;1999.90;999.90;;;18.60;99.90;;;;;;5063820;28;20041;-72
2022/08/15 05:37:06;;;;;;;1999.90;999.90;;;18.70;99.90;;;;;;5043600;28;20048;-73
2022/08/15 05:39:33;;;;;;;1999.90;999.90;;;18.70;99.90;;;;;;5061353;28;20051;-72
2022/08/15 05:42:24;;;;;;;1999.90;999.90;;;18.80;99.90;;;;;;5056086;28;20049;-72
2022/08/15 05:45:01;;;;;;;1999.90;999.90;;;18.90;99.90;;;;;;5061719;28;20118;-72
2022/08/15 05:47:34;;;;;;;1999.90;999.90;;;18.90;99.90;;;;;;5060725;28;20036;-72
2022/08/15 05:50:28;;;;;;;1999.90;999.90;;;18.90;99.90;;;;;;5057212;28;20041;-72
2022/08/15 05:53:07;;;;;;;1999.90;999.90;;;19.00;99.90;;;;;;5044317;28;20044;-73
2022/08/15 05:55:44;;;;;;;1999.90;999.90;;;19.10;99.90;;;;;;5059960;28;20515;-73
2022/08/15 05:58:25;;;;;;;1999.90;999.90;;;19.20;99.90;;;;;;5055992;28;20048;-73
2022/08/15 06:01:01;;;;;;;1999.90;999.90;;;19.30;99.90;;;;;;5050282;28;20040;-73
2022/08/15 06:03:28;;;;;;;1999.90;999.90;;;19.50;99.90;;;;;;5046929;28;20032;-73
2022/08/15 06:05:57;;;;;;;1999.90;999.90;;;19.60;99.90;;;;;;5065476;28;20477;-73
2022/08/15 06:08:30;;;;;;;1999.90;999.90;;;19.60;99.90;;;;;;5064546;28;20087;-73
2022/08/15 06:11:09;;;;;;;1999.90;999.90;;;19.70;99.90;;;;;;5073659;28;20386;-73
2022/08/15 06:14:12;;;;;;;1999.90;999.90;;;19.80;99.90;;;;;;5060019;28;20048;-73
2022/08/15 06:16:48;;;;;;;1999.90;999.90;;;19.90;99.90;;;;;;5061276;28;20040;-73
2022/08/15 06:19:22;;;;;;;1999.90;999.90;;;20.10;99.90;;;;;;5046774;28;20055;-73
2022/08/15 06:22:00;;;;;;;1999.90;999.90;;;20.20;99.90;;;;;;5044217;28;20045;-73
2022/08/15 06:24:51;;;;;;;1999.90;999.90;;;20.40;99.90;;;;;;5052449;28;20049;-73
2022/08/15 06:27:33;;;;;;;1999.90;999.90;;;20.50;99.90;;;;;;5063419;28;20472;-73
2022/08/15 06:30:12;;;;;;;1999.90;999.90;;;20.70;99.90;;;;;;5047346;28;20037;-74
2022/08/15 06:32:49;;;;;;;1999.90;999.90;;;21.10;99.90;;;;;;5037342;28;20654;-74
2022/08/15 06:35:41;;;;;;;1999.90;999.90;;;21.30;99.90;;;;;;5088459;28;20045;-73
2022/08/15 06:38:31;;;;;;;1999.90;999.90;;;21.20;99.90;;;;;;5024211;28;20052;-72
2022/08/15 06:41:08;;;;;;;1999.90;999.90;;;21.20;99.90;;;;;;5037197;28;20056;-72
2022/08/15 06:43:34;;;;;;;1999.90;999.90;;;21.20;99.90;;;;;;5063255;28;20036;-73
2022/08/15 06:46:02;;;;;;;1999.90;999.90;;;21.20;99.90;;;;;;5041968;28;20041;-73
2022/08/15 06:48:33;;;;;;;1999.90;999.90;;;21.30;99.90;;;;;;5062410;28;20093;-73
2022/08/15 06:51:02;;;;;;;1999.90;999.90;;;21.40;99.90;;;;;;5049096;28;20045;-73
2022/08/15 06:53:36;;;;;;;1999.90;999.90;;;21.60;99.90;;;;;;5063307;28;20044;-73
2022/08/15 06:56:11;;;;;;;1999.90;999.90;;;21.80;99.90;;;;;;5063436;28;20048;-73
2022/08/15 06:58:49;;;;;;;1999.90;999.90;;;22.20;99.90;;;;;;5055511;28;20048;-73
2022/08/15 07:01:49;;;;;;;1999.90;999.90;;;22.80;99.90;;;;;;5060371;28;20041;-73
2022/08/15 07:04:30;;;;;;;1999.90;999.90;;;22.90;99.90;;;;;;5064749;28;20046;-73
2022/08/15 07:07:11;;;;;;;1999.90;999.90;;;22.90;99.90;;;;;;5047951;28;20102;-74
2022/08/15 07:09:47;;;;;;;1999.90;999.90;;;23.70;99.90;;;;;;5048124;28;20049;-73
2022/08/15 07:12:31;;;;;;;1999.90;999.90;;;24.10;99.90;;;;;;5046846;28;20397;-73
2022/08/15 07:15:11;;;;;;;1999.90;999.90;;;24.00;99.90;;;;;;5056288;28;20138;-73
2022/08/15 07:17:45;;;;;;;1999.90;999.90;;;23.90;99.90;;;;;;5062436;28;20123;-74
2022/08/15 07:20:11;;;;;;;1999.90;999.90;;;23.90;99.90;;;;;;5061122;28;20045;-73
2022/08/15 07:22:40;;;;;;;1999.90;999.90;;;23.80;99.90;;;;;;5048672;28;20041;-74
2022/08/15 07:25:21;;;;;;;1999.90;999.90;;;23.80;99.90;;;;;;5047375;28;20036;-74
2022/08/15 07:27:57;;;;;;;1999.90;999.90;;;23.60;99.90;;;;;;5082654;28;20114;-74
2022/08/15 07:30:47;;;;;;;1999.90;999.90;;;23.60;99.90;;;;;;5062824;28;20080;-74
2022/08/15 07:33:35;;;;;;;1999.90;999.90;;;23.60;99.90;;;;;;5050143;28;20486;-74
2022/08/15 07:36:17;;;;;;;1999.90;999.90;;;23.70;99.90;;;;;;5069904;28;20037;-73
2022/08/15 07:38:42;;;;;;;1999.90;999.90;;;23.70;99.90;;;;;;5044068;28;20143;-73
2022/08/15 07:41:33;;;;;;;1999.90;999.90;;;23.80;99.90;;;;;;5052395;28;20150;-73
2022/08/15 07:44:00;;;;;;;1999.90;999.90;;;23.80;99.90;;;;;;5064857;28;20067;-74
2022/08/15 07:46:40;;;;;;;1999.90;999.90;;;23.90;99.90;;;;;;5061475;28;20333;-74
2022/08/15 07:49:17;;;;;;;1999.90;999.90;;;24.00;99.90;;;;;;5068785;28;20086;-74
2022/08/15 07:52:20;;;;;;;1999.90;999.90;;;24.20;99.90;;;;;;5061865;28;20102;-74
2022/08/15 07:54:50;;;;;;;1999.90;999.90;;;24.20;99.90;;;;;;5068149;28;20131;-74
2022/08/15 07:57:35;;;;;;;1999.90;999.90;;;24.30;99.90;;;;;;5065068;28;20081;-73
2022/08/15 08:00:14;;;;;;;1999.90;999.90;;;24.40;99.90;;;;;;5069112;28;20056;-74
2022/08/15 08:02:49;;;;;;;1999.90;999.90;;;24.50;99.90;;;;;;5057801;28;20056;-74
2022/08/15 08:05:15;;;;;;;1999.90;999.90;;;24.60;99.90;;;;;;5072431;28;20410;-74
2022/08/15 08:07:49;;;;;;;1999.90;999.90;;;24.50;99.90;;;;;;5068026;28;20064;-74
2022/08/15 08:10:37;;;;;;;1999.90;999.90;;;24.50;99.90;;;;;;5049999;28;20044;-74
2022/08/15 08:13:12;;;;;;;1999.90;999.90;;;24.50;99.90;;;;;;5067635;28;20043;-74
2022/08/15 08:15:52;;;;;;;1999.90;999.90;;;24.50;99.90;;;;;;5066574;28;20094;-73
2022/08/15 08:18:32;;;;;;;1999.90;999.90;;;24.50;99.90;;;;;;5063730;28;20047;-73
2022/08/15 08:21:04;;;;;;;1999.90;999.90;;;24.50;99.90;;;;;;5045177;28;20105;-73
2022/08/15 08:23:34;;;;;;;1999.90;999.90;;;24.60;99.90;;;;;;5058888;28;20507;-74
2022/08/15 08:26:06;;;;;;;1999.90;999.90;;;24.60;99.90;;;;;;5060428;28;20036;-73
2022/08/15 08:29:11;;;;;;;1999.90;999.90;;;24.50;99.90;;;;;;5048830;28;20557;-74
2022/08/15 08:31:54;;;;;;;1999.90;999.90;;;24.50;99.90;;;;;;5098194;28;20079;-74
2022/08/15 08:34:29;;;;;;;1999.90;999.90;;;24.50;99.90;;;;;;5084029;28;20584;-74
2022/08/15 08:37:09;;;;;;;1999.90;999.90;;;24.50;99.90;;;;;;5055027;28;20068;-73
2022/08/15 08:39:50;;;;;;;1999.90;999.90;;;24.50;99.90;;;;;;5049465;28;20060;-73
2022/08/15 08:42:45;;;;;;;1999.90;999.90;;;24.60;99.90;;;;;;5090583;28;20124;-74
2022/08/15 08:45:28;;;;;;;1999.90;999.90;;;24.70;99.90;;;;;;5069658;28;20044;-73
2022/08/15 08:48:10;;;;;;;1999.90;999.90;;;24.80;99.90;;;;;;5048088;28;20051;-73
2022/08/15 08:51:04;;;;;;;1999.90;999.90;;;24.80;99.90;;;;;;5095104;28;20056;-73
2022/08/15 08:53:51;;;;;;;1999.90;999.90;;;25.00;99.90;;;;;;5065165;28;20036;-73
2022/08/15 08:56:26;;;;;;;1999.90;999.90;;;25.30;99.90;;;;;;5051055;28;20045;-72
2022/08/15 08:59:18;;;;;;;1999.90;999.90;;;25.70;99.90;;;;;;5050210;28;20047;-74
2022/08/15 09:01:50;;;;;;;1999.90;999.90;;;26.00;99.90;;;;;;5004443;28;20480;-74
2022/08/15 09:04:26;;;;;;;1999.90;999.90;;;26.00;99.90;;;;;;5011309;28;20046;-73
2022/08/15 09:06:55;;;;;;;1999.90;999.90;;;26.10;99.90;;;;;;4990382;28;20132;-72
2022/08/15 09:09:32;;;;;;;1999.90;999.90;;;26.00;99.90;;;;;;5010125;28;20527;-73
2022/08/15 09:12:03;;;;;;;1999.90;999.90;;;26.30;99.90;;;;;;4992967;28;20106;-73
2022/08/15 09:14:35;;;;;;;1999.90;999.90;;;26.60;99.90;;;;;;4999149;28;20107;-73
2022/08/15 09:17:10;;;;;;;1999.90;999.90;;;27.00;99.90;;;;;;5018558;28;20484;-73
2022/08/15 09:20:05;;;;;;;1999.90;999.90;;;27.20;99.90;;;;;;5010971;28;20061;-73
2022/08/15 09:22:31;;;;;;;1999.90;999.90;;;27.50;99.90;;;;;;5026919;28;20543;-73
2022/08/15 09:24:57;;;;;;;1999.90;999.90;;;28.40;99.90;;;;;;5004889;28;20091;-73
2022/08/15 09:27:35;;;;;;;1999.90;999.90;;;29.00;99.90;;;;;;5029456;28;20088;-73
2022/08/15 09:30:07;;;;;;;1999.90;999.90;;;29.60;99.90;;;;;;5009623;28;20048;-74
2022/08/15 09:33:05;;;;;;;1999.90;999.90;;;30.00;99.90;;;;;;4991566;28;20521;-74
2022/08/15 09:35:48;;;;;;;1999.90;999.90;;;30.30;99.90;;;;;;5040576;28;20046;-74
2022/08/15 09:38:33;;;;;;;1999.90;999.90;;;30.60;99.90;;;;;;5014931;28;20127;-73
2022/08/15 09:41:42;;;;;;;1999.90;999.90;;;30.90;97.60;;;;;;5091986;28;20066;-73
2022/08/15 09:44:32;;;;;;;1999.90;999.90;;;31.20;99.70;;;;;;5061668;28;20480;-73
2022/08/15 09:47:01;;;;;;;1999.90;999.90;;;31.40;99.90;;;;;;5058703;28;20028;-74
2022/08/15 09:50:09;;;;;;;1999.90;999.90;;;31.70;99.90;;;;;;5052853;28;20535;-74
2022/08/15 09:52:39;;;;;;;1999.90;999.90;;;31.70;99.20;;;;;;5066066;28;20126;-73
2022/08/15 09:55:18;;;;;;;1999.90;999.90;;;31.80;99.90;;;;;;5058107;28;20036;-74
2022/08/15 09:57:52;;;;;;;1999.90;999.90;;;32.00;96.60;;;;;;5049003;28;20045;-74
2022/08/15 10:00:27;;;;;;;1999.90;999.90;;;32.00;99.00;;;;;;5076440;28;20099;-74
2022/08/15 10:03:00;;;;;;;1999.90;999.90;;;31.80;96.10;;;;;;5049232;28;20444;-74
2022/08/15 10:05:36;;;;;;;1999.90;999.90;;;31.70;95.20;;;;;;5048882;28;20067;-74
2022/08/15 10:08:05;;;;;;;1999.90;999.90;;;31.90;97.00;;;;;;5072647;28;20127;-73
2022/08/15 10:10:36;;;;;;;1999.90;999.90;;;32.00;97.20;;;;;;5055780;28;20377;-74
2022/08/15 10:13:10;;;;;;;1999.90;999.90;;;32.00;96.00;;;;;;5090459;28;20044;-74
2022/08/15 10:15:43;;;;;;;1999.90;999.90;;;31.90;96.10;;;;;;5066128;28;20048;-74
2022/08/15 10:18:38;;;;;;;1999.90;999.90;;;32.00;96.10;;;;;;5045628;28;20047;-74
2022/08/15 10:21:18;;;;;;;1999.90;999.90;;;32.10;90.50;;;;;;5032856;28;20437;-74
2022/08/15 10:23:46;;;;;;;1999.90;999.90;;;31.90;88.50;;;;;;5089537;28;20047;-73
2022/08/15 10:26:21;;;;;;;1999.90;999.90;;;31.50;93.80;;;;;;5061849;28;20048;-73
2022/08/15 10:28:59;;;;;;;1999.90;999.90;;;31.00;93.80;;;;;;5046878;28;20507;-73
2022/08/15 10:31:30;;;;;;;1999.90;999.90;;;30.70;94.50;;;;;;5056808;28;20052;-73
2022/08/15 10:34:00;;;;;;;1999.90;999.90;;;30.40;94.00;;;;;;5047657;28;20674;-74
2022/08/15 10:36:35;;;;;;;1999.90;999.90;;;29.90;90.80;;;;;;5074370;28;20049;-73
2022/08/15 10:39:29;;;;;;;1999.90;999.90;;;29.40;93.50;;;;;;5048105;28;20064;-73
2022/08/15 10:42:02;;;;;;;1999.90;999.90;;;28.90;94.60;;;;;;5070495;28;20474;-73
2022/08/15 10:45:10;;;;;;;1999.90;999.90;;;28.60;95.50;;;;;;5046203;28;20071;-73
2022/08/15 10:48:06;;;;;;;1999.90;999.90;;;28.20;96.70;;;;;;5067054;28;20047;-73
2022/08/15 10:50:54;;;;;;;1999.90;999.90;;;28.00;96.30;;;;;;5043874;28;20202;-73
2022/08/15 10:53:40;;;;;;;1999.90;999.90;;;27.90;96.10;;;;;;5071829;28;20109;-73
2022/08/15 10:56:20;;;;;;;1999.90;999.90;;;27.80;98.10;;;;;;5075632;28;20123;-73
2022/08/15 10:58:49;;;;;;;1999.90;999.90;;;27.80;98.60;;;;;;5094005;28;20139;-73
2022/08/15 11:01:27;;;;;;;1999.90;999.90;;;27.70;99.40;;;;;;5074419;28;20044;-73
2022/08/15 11:04:02;;;;;;;1999.90;999.90;;;27.70;99.50;;;;;;5053555;28;20040;-73
2022/08/15 11:06:29;;;;;;;1999.90;999.90;;;27.70;99.90;;;;;;5064868;28;20072;-73
2022/08/15 11:09:12;;;;;;;1999.90;999.90;;;27.70;99.90;;;;;;5070844;28;20054;-73
2022/08/15 11:11:43;;;;;;;1999.90;999.90;;;27.60;99.90;;;;;;5070950;28;20040;-73
2022/08/15 11:14:26;;;;;;;1999.90;999.90;;;27.50;99.90;;;;;;5069556;28;20523;-73
2022/08/15 11:16:52;;;;;;;1999.90;999.90;;;27.30;99.90;;;;;;5069226;28;20116;-73
2022/08/15 11:19:23;;;;;;;1999.90;999.90;;;27.20;99.90;;;;;;5067900;28;20491;-73
2022/08/15 11:21:56;;;;;;;1999.90;999.90;;;27.10;99.90;;;;;;5055117;28;20039;-72
2022/08/15 11:24:34;;;;;;;1999.90;999.90;;;26.90;99.90;;;;;;5063354;28;20045;-73
2022/08/15 11:27:11;;;;;;;1999.90;999.90;;;26.80;99.90;;;;;;5066922;28;20041;-73
2022/08/15 11:29:37;;;;;;;1999.90;999.90;;;26.70;99.90;;;;;;5078375;28;20048;-73
2022/08/15 11:32:03;;;;;;;1999.90;999.90;;;26.60;99.90;;;;;;5049641;28;20120;-73
2022/08/15 11:34:34;;;;;;;1999.90;999.90;;;26.40;99.90;;;;;;5049795;28;20044;-73
2022/08/15 11:37:19;;;;;;;1999.90;999.90;;;26.10;99.90;;;;;;5049916;28;20468;-73
2022/08/15 11:39:58;;;;;;;1999.90;999.90;;;25.80;99.90;;;;;;5049080;28;20213;-73
2022/08/15 11:42:27;;;;;;;1999.90;999.90;;;25.60;99.90;;;;;;5035166;28;20116;-73
2022/08/15 11:45:08;;;;;;;1999.90;999.90;;;25.30;99.90;;;;;;5072198;28;20489;-73
2022/08/15 11:47:36;;;;;;;1999.90;999.90;;;25.10;99.90;;;;;;5076661;28;20037;-74
2022/08/15 11:50:06;;;;;;;1999.90;999.90;;;24.90;99.90;;;;;;5042882;28;20124;-74
2022/08/15 11:52:35;;;;;;;1999.90;999.90;;;24.70;99.90;;;;;;5067078;28;20460;-75
2022/08/15 11:55:14;;;;;;;1999.90;999.90;;;24.70;99.90;;;;;;5044501;28;20079;-75
2022/08/15 11:57:46;;;;;;;1999.90;999.90;;;24.60;99.90;;;;;;5073915;28;20082;-75
2022/08/15 12:00:34;;;;;;;1999.90;999.90;;;24.40;99.90;;;;;;5064770;28;20055;-75
2022/08/15 12:03:27;;;;;;;1999.90;999.90;;;24.20;99.90;;;;;;5057412;28;20416;-75
2022/08/15 12:05:56;;;;;;;1999.90;999.90;;;23.90;99.90;;;;;;5037347;28;20036;-76
2022/08/15 12:08:31;;;;;;;1999.90;999.90;;;23.70;99.90;;;;;;5055572;28;20040;-75
2022/08/15 12:11:21;;;;;;;1999.90;999.90;;;23.60;99.90;;;;;;5062988;28;20414;-75
2022/08/15 12:14:18;;;;;;;1999.90;999.90;;;23.50;99.90;;;;;;5040972;28;20558;-76
2022/08/15 12:16:53;;;;;;;1999.90;999.90;;;23.30;99.90;;;;;;5084467;28;20135;-75
2022/08/15 12:19:34;;;;;;;1999.90;999.90;;;23.30;99.90;;;;;;5037882;28;20044;-76
2022/08/15 12:22:07;;;;;;;1999.90;999.90;;;23.20;99.90;;;;;;5038177;28;20049;-76
2022/08/15 12:24:35;;;;;;;1999.90;999.90;;;23.30;99.90;;;;;;5064486;28;20044;-76
2022/08/15 12:27:02;;;;;;;1999.90;999.90;;;23.30;99.90;;;;;;5064720;28;20400;-75
2022/08/15 12:29:31;;;;;;;1999.90;999.90;;;23.30;99.90;;;;;;5066063;28;20087;-76
2022/08/15 12:31:58;;;;;;;1999.90;999.90;;;23.30;99.90;;;;;;5044783;28;20041;-76
2022/08/15 12:34:36;;;;;;;1999.90;999.90;;;23.40;99.90;;;;;;5063778;28;20086;-76